sensor_id;sensor_type;location;lat;lon;timestamp;pressure;altitude;pressure_sealevel;temperature;humidity
72061;BME280;59925;52.136;5.420;2023-05-22T00:01:03;101715.09;;;15.75;92.56
72061;BME280;59925;52.136;5.420;2023-05-22T00:03:32;101715.41;;;15.74;92.77
72061;BME280;59925;52.136;5.420;2023-05-22T00:05:59;101706.50;;;15.73;92.90
72061;BME280;59925;52.136;5.420;2023-05-22T00:08:26;101711.16;;;15.68;93.06
72061;BME280;59925;52.136;5.420;2023-05-22T00:10:55;101708.72;;;15.66;93.51
72061;BME280;59925;52.136;5.420;2023-05-22T00:13:21;101701.75;;;15.60;93.64
72061;BME280;59925;52.136;5.420;2023-05-22T00:15:48;101701.22;;;15.58;93.80
72061;BME280;59925;52.136;5.420;2023-05-22T00:18:15;101699.06;;;15.55;93.96
72061;BME280;59925;52.136;5.420;2023-05-22T00:20:41;101693.13;;;15.53;94.02
72061;BME280;59925;52.136;5.420;2023-05-22T00:23:07;101696.13;;;15.51;94.20
72061;BME280;59925;52.136;5.420;2023-05-22T00:25:35;101689.13;;;15.50;94.45
72061;BME280;59925;52.136;5.420;2023-05-22T00:28:03;101676.97;;;15.47;94.50
72061;BME280;59925;52.136;5.420;2023-05-22T00:30:30;101669.69;;;15.43;94.56
72061;BME280;59925;52.136;5.420;2023-05-22T00:32:57;101687.81;;;15.42;94.85
72061;BME280;59925;52.136;5.420;2023-05-22T00:35:23;101684.06;;;15.38;95.08
72061;BME280;59925;52.136;5.420;2023-05-22T00:37:50;101683.81;;;15.35;95.34
72061;BME280;59925;52.136;5.420;2023-05-22T00:40:17;101683.53;;;15.36;95.63
72061;BME280;59925;52.136;5.420;2023-05-22T00:42:43;101675.16;;;15.38;95.69
72061;BME280;59925;52.136;5.420;2023-05-22T00:45:10;101676.00;;;15.33;96.01
72061;BME280;59925;52.136;5.420;2023-05-22T00:47:37;101671.69;;;15.32;96.03
72061;BME280;59925;52.136;5.420;2023-05-22T00:50:04;101665.47;;;15.31;96.37
72061;BME280;59925;52.136;5.420;2023-05-22T00:52:34;101660.88;;;15.32;96.63
72061;BME280;59925;52.136;5.420;2023-05-22T00:55:02;101659.78;;;15.33;96.68
72061;BME280;59925;52.136;5.420;2023-05-22T00:57:30;101658.19;;;15.32;96.95
72061;BME280;59925;52.136;5.420;2023-05-22T01:00:00;101651.94;;;15.31;96.96
72061;BME280;59925;52.136;5.420;2023-05-22T01:02:28;101653.84;;;15.31;97.15
72061;BME280;59925;52.136;5.420;2023-05-22T01:04:58;101649.25;;;15.31;97.02
72061;BME280;59925;52.136;5.420;2023-05-22T01:07:24;101645.22;;;15.29;97.15
72061;BME280;59925;52.136;5.420;2023-05-22T01:09:51;101651.19;;;15.26;97.16
72061;BME280;59925;52.136;5.420;2023-05-22T01:12:42;101640.38;;;15.26;97.26
72061;BME280;59925;52.136;5.420;2023-05-22T01:15:23;101639.81;;;15.29;97.29
72061;BME280;59925;52.136;5.420;2023-05-22T01:32:01;101624.16;;;15.26;97.65
72061;BME280;59925;52.136;5.420;2023-05-22T01:34:29;101629.88;;;15.24;97.74
72061;BME280;59925;52.136;5.420;2023-05-22T01:36:57;101629.56;;;15.26;97.88
72061;BME280;59925;52.136;5.420;2023-05-22T01:39:24;101634.75;;;15.22;97.87
72061;BME280;59925;52.136;5.420;2023-05-22T01:41:51;101626.41;;;15.19;97.94
72061;BME280;59925;52.136;5.420;2023-05-22T01:44:18;101627.19;;;15.19;97.81
72061;BME280;59925;52.136;5.420;2023-05-22T01:46:45;101621.78;;;15.19;97.52
72061;BME280;59925;52.136;5.420;2023-05-22T01:49:11;101628.28;;;15.18;97.17
72061;BME280;59925;52.136;5.420;2023-05-22T01:54:15;101618.63;;;15.12;96.66
72061;BME280;59925;52.136;5.420;2023-05-22T01:59:48;101607.03;;;15.06;97.42
72061;BME280;59925;52.136;5.420;2023-05-22T02:02:20;101605.19;;;15.01;97.37
72061;BME280;59925;52.136;5.420;2023-05-22T02:04:53;101604.66;;;14.99;97.68
72061;BME280;59925;52.136;5.420;2023-05-22T02:07:21;101596.25;;;15.01;97.61
72061;BME280;59925;52.136;5.420;2023-05-22T02:09:50;101602.22;;;14.98;97.63
72061;BME280;59925;52.136;5.420;2023-05-22T02:12:19;101596.59;;;14.94;97.63
72061;BME280;59925;52.136;5.420;2023-05-22T02:14:46;101600.66;;;14.92;97.92
72061;BME280;59925;52.136;5.420;2023-05-22T02:17:13;101606.06;;;14.86;98.04
72061;BME280;59925;52.136;5.420;2023-05-22T02:19:39;101603.66;;;14.85;98.20
72061;BME280;59925;52.136;5.420;2023-05-22T02:22:06;101609.31;;;14.83;98.22
72061;BME280;59925;52.136;5.420;2023-05-22T02:24:35;101595.06;;;14.78;98.38
72061;BME280;59925;52.136;5.420;2023-05-22T02:27:02;101596.44;;;14.75;98.47
72061;BME280;59925;52.136;5.420;2023-05-22T02:29:29;101594.81;;;14.74;98.60
72061;BME280;59925;52.136;5.420;2023-05-22T02:31:55;101596.44;;;14.75;98.52
72061;BME280;59925;52.136;5.420;2023-05-22T02:34:22;101596.44;;;14.75;98.67
72061;BME280;59925;52.136;5.420;2023-05-22T02:36:48;101587.56;;;14.69;98.63
72061;BME280;59925;52.136;5.420;2023-05-22T02:39:17;101591.34;;;14.68;98.71
72061;BME280;59925;52.136;5.420;2023-05-22T02:41:44;101589.72;;;14.67;98.54
72061;BME280;59925;52.136;5.420;2023-05-22T02:44:11;101589.72;;;14.67;98.37
72061;BME280;59925;52.136;5.420;2023-05-22T02:46:37;101590.56;;;14.68;98.09
72061;BME280;59925;52.136;5.420;2023-05-22T02:49:04;101589.44;;;14.69;97.61
72061;BME280;59925;52.136;5.420;2023-05-22T02:51:30;101587.84;;;14.68;97.97
72061;BME280;59925;52.136;5.420;2023-05-22T02:53:57;101580.81;;;14.67;98.08
72061;BME280;59925;52.136;5.420;2023-05-22T02:56:23;101580.53;;;14.68;98.03
72061;BME280;59925;52.136;5.420;2023-05-22T02:58:53;101583.22;;;14.63;98.13
72061;BME280;59925;52.136;5.420;2023-05-22T03:01:19;101574.63;;;14.61;98.22
72061;BME280;59925;52.136;5.420;2023-05-22T03:03:47;101576.50;;;14.61;98.47
72061;BME280;59925;52.136;5.420;2023-05-22T03:06:14;101571.66;;;14.63;98.72
72061;BME280;59925;52.136;5.420;2023-05-22T03:08:41;101569.78;;;14.58;98.67
72061;BME280;59925;52.136;5.420;2023-05-22T03:11:09;101574.66;;;14.56;99.04
72061;BME280;59925;52.136;5.420;2023-05-22T03:13:36;101577.34;;;14.56;98.89
72061;BME280;59925;52.136;5.420;2023-05-22T03:16:03;101580.28;;;14.60;98.97
72061;BME280;59925;52.136;5.420;2023-05-22T03:18:29;101579.75;;;14.63;98.94
72061;BME280;59925;52.136;5.420;2023-05-22T03:20:56;101571.94;;;14.61;98.63
72061;BME280;59925;52.136;5.420;2023-05-22T03:23:22;101568.13;;;14.62;98.71
72061;BME280;59925;52.136;5.420;2023-05-22T03:25:50;101574.63;;;14.61;98.94
72061;BME280;59925;52.136;5.420;2023-05-22T03:28:17;101582.44;;;14.63;98.93
72061;BME280;59925;52.136;5.420;2023-05-22T03:30:43;101573.28;;;14.59;99.07
72061;BME280;59925;52.136;5.420;2023-05-22T03:33:10;101572.19;;;14.60;99.08
72061;BME280;59925;52.136;5.420;2023-05-22T03:35:37;101574.09;;;14.59;99.09
72061;BME280;59925;52.136;5.420;2023-05-22T03:38:03;101577.06;;;14.57;99.11
72061;BME280;59925;52.136;5.420;2023-05-22T03:40:30;101576.56;;;14.55;99.18
72061;BME280;59925;52.136;5.420;2023-05-22T03:42:56;101577.63;;;14.54;99.22
72061;BME280;59925;52.136;5.420;2023-05-22T03:45:22;101586.00;;;14.53;99.15
72061;BME280;59925;52.136;5.420;2023-05-22T03:47:49;101584.13;;;14.48;99.20
72061;BME280;59925;52.136;5.420;2023-05-22T03:50:16;101583.06;;;14.44;99.24
72061;BME280;59925;52.136;5.420;2023-05-22T03:52:42;101583.06;;;14.44;99.37
72061;BME280;59925;52.136;5.420;2023-05-22T03:55:09;101587.38;;;14.45;99.25
72061;BME280;59925;52.136;5.420;2023-05-22T03:57:36;101579.88;;;14.42;99.50
72061;BME280;59925;52.136;5.420;2023-05-22T04:00:02;101580.66;;;14.43;99.23
72061;BME280;59925;52.136;5.420;2023-05-22T04:02:35;101573.66;;;14.41;99.33
72061;BME280;59925;52.136;5.420;2023-05-22T04:05:06;101577.41;;;14.40;99.63
72061;BME280;59925;52.136;5.420;2023-05-22T04:07:33;101581.75;;;14.41;99.59
72061;BME280;59925;52.136;5.420;2023-05-22T04:10:00;101580.41;;;14.39;99.74
72061;BME280;59925;52.136;5.420;2023-05-22T04:12:26;101575.56;;;14.41;99.75
72061;BME280;59925;52.136;5.420;2023-05-22T04:14:53;101578.50;;;14.45;99.71
72061;BME280;59925;52.136;5.420;2023-05-22T04:17:19;101576.06;;;14.43;99.69
72061;BME280;59925;52.136;5.420;2023-05-22T04:19:46;101578.25;;;14.41;99.75
72061;BME280;59925;52.136;5.420;2023-05-22T04:22:12;101581.44;;;14.43;99.64
72061;BME280;59925;52.136;5.420;2023-05-22T04:24:39;101583.06;;;14.44;99.58
72061;BME280;59925;52.136;5.420;2023-05-22T04:27:05;101592.22;;;14.48;99.78
72061;BME280;59925;52.136;5.420;2023-05-22T04:29:33;101608.97;;;14.45;99.30
72061;BME280;59925;52.136;5.420;2023-05-22T04:32:01;101614.09;;;14.47;99.63
72061;BME280;59925;52.136;5.420;2023-05-22T04:34:28;101614.88;;;14.47;99.58
72061;BME280;59925;52.136;5.420;2023-05-22T04:36:55;101617.59;;;14.47;99.77
72061;BME280;59925;52.136;5.420;2023-05-22T04:39:21;101618.38;;;14.53;99.80
72061;BME280;59925;52.136;5.420;2023-05-22T04:41:51;101626.22;;;14.54;99.74
72061;BME280;59925;52.136;5.420;2023-05-22T04:44:18;101622.38;;;14.61;99.97
72061;BME280;59925;52.136;5.420;2023-05-22T04:46:48;101631.00;;;14.63;99.80
72061;BME280;59925;52.136;5.420;2023-05-22T04:49:15;101633.44;;;14.64;99.72
72061;BME280;59925;52.136;5.420;2023-05-22T04:51:41;101629.13;;;14.68;99.75
72061;BME280;59925;52.136;5.420;2023-05-22T04:54:08;101637.47;;;14.72;99.56
72061;BME280;59925;52.136;5.420;2023-05-22T04:56:34;101642.59;;;14.74;99.35
72061;BME280;59925;52.136;5.420;2023-05-22T04:59:03;101648.25;;;14.77;99.14
72061;BME280;59925;52.136;5.420;2023-05-22T05:01:30;101647.16;;;14.78;98.93
72061;BME280;59925;52.136;5.420;2023-05-22T05:03:59;101639.63;;;14.75;98.84
72061;BME280;59925;52.136;5.420;2023-05-22T05:06:26;101639.31;;;14.77;98.81
72061;BME280;59925;52.136;5.420;2023-05-22T05:08:52;101646.63;;;14.81;98.49
72061;BME280;59925;52.136;5.420;2023-05-22T05:11:19;101646.56;;;14.86;98.71
72061;BME280;59925;52.136;5.420;2023-05-22T05:13:46;101644.69;;;14.87;98.66
72061;BME280;59925;52.136;5.420;2023-05-22T05:16:13;101641.16;;;14.92;98.39
72061;BME280;59925;52.136;5.420;2023-05-22T05:18:39;101642.19;;;14.96;98.33
72061;BME280;59925;52.136;5.420;2023-05-22T05:21:06;101631.59;;;15.05;98.03
72061;BME280;59925;52.136;5.420;2023-05-22T05:23:33;101634.00;;;15.11;97.91
72061;BME280;59925;52.136;5.420;2023-05-22T05:25:59;101632.34;;;15.21;97.96
72061;BME280;59925;52.136;5.420;2023-05-22T05:28:26;101626.03;;;15.30;97.59
72061;BME280;59925;52.136;5.420;2023-05-22T05:30:53;101627.72;;;15.56;97.35
72061;BME280;59925;52.136;5.420;2023-05-22T05:33:19;101621.44;;;15.95;96.93
72061;BME280;59925;52.136;5.420;2023-05-22T05:35:46;101625.69;;;16.69;95.79
72061;BME280;59925;52.136;5.420;2023-05-22T05:38:15;101619.00;;;17.71;92.86
72061;BME280;59925;52.136;5.420;2023-05-22T05:40:43;101617.31;;;18.31;88.82
72061;BME280;59925;52.136;5.420;2023-05-22T05:43:10;101626.81;;;18.70;85.94
72061;BME280;59925;52.136;5.420;2023-05-22T05:45:36;101624.28;;;19.33;83.62
72061;BME280;59925;52.136;5.420;2023-05-22T05:48:03;101623.25;;;19.74;81.10
72061;BME280;59925;52.136;5.420;2023-05-22T05:50:29;101624.66;;;20.03;79.69
72061;BME280;59925;52.136;5.420;2023-05-22T05:52:56;101617.56;;;20.34;78.82
72061;BME280;59925;52.136;5.420;2023-05-22T05:55:23;101629.78;;;20.72;77.39
72061;BME280;59925;52.136;5.420;2023-05-22T05:57:49;101618.13;;;21.06;75.07
72061;BME280;59925;52.136;5.420;2023-05-22T06:00:17;101613.28;;;21.21;74.20
72061;BME280;59925;52.136;5.420;2023-05-22T06:02:44;101613.91;;;21.26;73.13
72061;BME280;59925;52.136;5.420;2023-05-22T06:05:14;101618.38;;;21.49;73.06
72061;BME280;59925;52.136;5.420;2023-05-22T06:07:42;101610.59;;;21.77;71.93
72061;BME280;59925;52.136;5.420;2023-05-22T06:10:10;101614.03;;;21.95;71.00
72061;BME280;59925;52.136;5.420;2023-05-22T06:12:37;101606.28;;;21.67;70.57
72061;BME280;59925;52.136;5.420;2023-05-22T06:15:04;101604.78;;;21.79;70.91
72061;BME280;59925;52.136;5.420;2023-05-22T06:17:33;101613.25;;;21.95;69.89
72061;BME280;59925;52.136;5.420;2023-05-22T06:20:00;101612.50;;;22.15;69.88
72061;BME280;59925;52.136;5.420;2023-05-22T06:22:27;101615.25;;;22.45;69.99
72061;BME280;59925;52.136;5.420;2023-05-22T06:24:54;101617.69;;;22.59;68.93
72061;BME280;59925;52.136;5.420;2023-05-22T06:27:21;101618.47;;;22.39;68.66
72061;BME280;59925;52.136;5.420;2023-05-22T06:29:49;101625.25;;;22.32;69.20
72061;BME280;59925;52.136;5.420;2023-05-22T06:32:16;101626.53;;;22.35;69.17
72061;BME280;59925;52.136;5.420;2023-05-22T06:34:47;101623.84;;;22.26;68.88
72061;BME280;59925;52.136;5.420;2023-05-22T06:37:13;101626.06;;;22.33;69.55
72061;BME280;59925;52.136;5.420;2023-05-22T06:39:41;101629.88;;;22.41;69.15
72061;BME280;59925;52.136;5.420;2023-05-22T06:42:07;101636.50;;;22.31;68.28
72061;BME280;59925;52.136;5.420;2023-05-22T06:44:34;101639.81;;;22.45;69.48
72061;BME280;59925;52.136;5.420;2023-05-22T06:47:00;101639.03;;;22.66;68.58
72061;BME280;59925;52.136;5.420;2023-05-22T06:49:27;101641.44;;;22.89;68.03
72061;BME280;59925;52.136;5.420;2023-05-22T06:51:53;101638.13;;;23.17;67.31
72061;BME280;59925;52.136;5.420;2023-05-22T06:54:20;101642.69;;;23.46;67.09
72061;BME280;59925;52.136;5.420;2023-05-22T06:56:47;101644.88;;;23.53;66.35
72061;BME280;59925;52.136;5.420;2023-05-22T06:59:13;101636.84;;;23.35;66.22
72061;BME280;59925;52.136;5.420;2023-05-22T07:01:40;101637.44;;;22.86;67.53
72061;BME280;59925;52.136;5.420;2023-05-22T07:04:06;101639.94;;;22.19;68.70
72061;BME280;59925;52.136;5.420;2023-05-22T07:06:34;101644.22;;;21.99;71.85
72061;BME280;59925;52.136;5.420;2023-05-22T07:09:05;101641.72;;;21.85;72.81
72061;BME280;59925;52.136;5.420;2023-05-22T07:11:31;101650.28;;;21.66;74.01
72061;BME280;59925;52.136;5.420;2023-05-22T07:13:58;101645.94;;;21.65;73.30
72061;BME280;59925;52.136;5.420;2023-05-22T07:16:24;101648.19;;;21.63;74.52
72061;BME280;59925;52.136;5.420;2023-05-22T07:18:51;101661.84;;;21.63;73.86
72061;BME280;59925;52.136;5.420;2023-05-22T07:21:18;101651.25;;;21.70;75.07
72061;BME280;59925;52.136;5.420;2023-05-22T07:23:44;101645.44;;;21.71;74.75
72061;BME280;59925;52.136;5.420;2023-05-22T07:26:11;101652.97;;;21.74;75.41
72061;BME280;59925;52.136;5.420;2023-05-22T07:28:38;101651.53;;;21.77;74.39
72061;BME280;59925;52.136;5.420;2023-05-22T07:31:04;101655.00;;;21.86;75.66
72061;BME280;59925;52.136;5.420;2023-05-22T07:33:30;101652.22;;;22.04;74.73
72061;BME280;59925;52.136;5.420;2023-05-22T07:35:57;101651.38;;;22.12;74.39
72061;BME280;59925;52.136;5.420;2023-05-22T07:38:23;101652.47;;;22.20;73.83
72061;BME280;59925;52.136;5.420;2023-05-22T07:40:50;101648.94;;;22.19;72.19
72061;BME280;59925;52.136;5.420;2023-05-22T07:43:16;101647.94;;;22.24;72.42
72061;BME280;59925;52.136;5.420;2023-05-22T07:45:43;101651.28;;;22.30;72.33
72061;BME280;59925;52.136;5.420;2023-05-22T07:48:10;101652.16;;;22.22;73.03
72061;BME280;59925;52.136;5.420;2023-05-22T07:50:37;101644.97;;;22.38;72.48
72061;BME280;59925;52.136;5.420;2023-05-22T07:53:04;101656.09;;;22.42;71.28
72061;BME280;59925;52.136;5.420;2023-05-22T07:55:31;101659.75;;;22.37;71.48
72061;BME280;59925;52.136;5.420;2023-05-22T07:57:58;101659.25;;;22.44;71.91
72061;BME280;59925;52.136;5.420;2023-05-22T08:00:24;101663.06;;;22.52;70.94
72061;BME280;59925;52.136;5.420;2023-05-22T08:02:51;101657.91;;;22.59;71.82
72061;BME280;59925;52.136;5.420;2023-05-22T08:05:17;101660.56;;;22.68;70.26
72061;BME280;59925;52.136;5.420;2023-05-22T08:07:44;101654.56;;;22.74;70.90
72061;BME280;59925;52.136;5.420;2023-05-22T08:10:15;101663.97;;;22.86;70.32
72061;BME280;59925;52.136;5.420;2023-05-22T08:12:42;101668.84;;;23.01;71.44
72061;BME280;59925;52.136;5.420;2023-05-22T08:15:09;101674.09;;;23.27;69.21
72061;BME280;59925;52.136;5.420;2023-05-22T08:17:36;101682.13;;;23.45;70.32
72061;BME280;59925;52.136;5.420;2023-05-22T08:20:03;101671.34;;;23.61;70.07
72061;BME280;59925;52.136;5.420;2023-05-22T08:22:31;101675.69;;;23.75;68.50
72061;BME280;59925;52.136;5.420;2023-05-22T08:24:57;101680.72;;;23.72;69.44
72061;BME280;59925;52.136;5.420;2023-05-22T08:27:24;101678.91;;;23.89;69.40
72061;BME280;59925;52.136;5.420;2023-05-22T08:29:51;101672.13;;;24.08;66.76
72061;BME280;59925;52.136;5.420;2023-05-22T08:32:17;101673.03;;;23.99;65.43
72061;BME280;59925;52.136;5.420;2023-05-22T08:34:44;101673.28;;;24.19;67.45
72061;BME280;59925;52.136;5.420;2023-05-22T08:37:11;101666.63;;;24.32;66.85
72061;BME280;59925;52.136;5.420;2023-05-22T08:39:39;101656.94;;;24.23;66.52
72061;BME280;59925;52.136;5.420;2023-05-22T08:42:06;101654.97;;;24.36;66.42
72061;BME280;59925;52.136;5.420;2023-05-22T08:44:33;101657.56;;;24.57;67.40
72061;BME280;59925;52.136;5.420;2023-05-22T08:47:00;101656.41;;;24.70;65.43
72061;BME280;59925;52.136;5.420;2023-05-22T08:49:27;101655.00;;;24.89;65.33
72061;BME280;59925;52.136;5.420;2023-05-22T08:51:56;101655.50;;;25.07;66.06
72061;BME280;59925;52.136;5.420;2023-05-22T08:54:25;101654.94;;;25.30;66.13
72061;BME280;59925;52.136;5.420;2023-05-22T08:56:54;101659.47;;;25.38;64.32
72061;BME280;59925;52.136;5.420;2023-05-22T08:59:23;101655.19;;;25.53;63.05
72061;BME280;59925;52.136;5.420;2023-05-22T09:01:50;101656.16;;;25.61;62.60
72061;BME280;59925;52.136;5.420;2023-05-22T09:04:17;101655.31;;;25.73;62.99
72061;BME280;59925;52.136;5.420;2023-05-22T09:06:48;101653.00;;;25.91;61.72
72061;BME280;59925;52.136;5.420;2023-05-22T09:09:15;101651.31;;;25.86;61.45
72061;BME280;59925;52.136;5.420;2023-05-22T09:11:41;101648.09;;;26.00;61.04
72061;BME280;59925;52.136;5.420;2023-05-22T09:14:09;101647.09;;;26.08;61.57
72061;BME280;59925;52.136;5.420;2023-05-22T09:16:45;101651.09;;;26.27;60.48
72061;BME280;59925;52.136;5.420;2023-05-22T09:19:13;101642.91;;;26.46;59.84
72061;BME280;59925;52.136;5.420;2023-05-22T09:21:41;101647.09;;;26.60;60.92
72061;BME280;59925;52.136;5.420;2023-05-22T09:24:09;101642.78;;;26.79;58.21
72061;BME280;59925;52.136;5.420;2023-05-22T09:26:39;101641.00;;;26.86;59.54
72061;BME280;59925;52.136;5.420;2023-05-22T09:29:07;101633.41;;;26.99;57.26
72061;BME280;59925;52.136;5.420;2023-05-22T09:31:41;101633.81;;;27.01;58.33
72061;BME280;59925;52.136;5.420;2023-05-22T09:34:09;101637.69;;;27.20;58.27
72061;BME280;59925;52.136;5.420;2023-05-22T09:36:36;101632.31;;;27.27;57.59
72061;BME280;59925;52.136;5.420;2023-05-22T09:39:03;101632.03;;;27.32;56.75
72061;BME280;59925;52.136;5.420;2023-05-22T09:41:34;101627.81;;;27.38;58.06
72061;BME280;59925;52.136;5.420;2023-05-22T09:44:06;101627.81;;;27.62;56.68
72061;BME280;59925;52.136;5.420;2023-05-22T09:46:40;101632.88;;;27.83;56.85
72061;BME280;59925;52.136;5.420;2023-05-22T09:49:07;101628.72;;;27.93;55.69
72061;BME280;59925;52.136;5.420;2023-05-22T09:51:35;101629.50;;;27.93;55.68
72061;BME280;59925;52.136;5.420;2023-05-22T09:54:06;101627.53;;;27.94;53.27
72061;BME280;59925;52.136;5.420;2023-05-22T09:56:38;101622.81;;;27.94;53.56
72061;BME280;59925;52.136;5.420;2023-05-22T09:59:07;101624.41;;;27.95;54.38
72061;BME280;59925;52.136;5.420;2023-05-22T10:01:35;101633.72;;;28.10;50.82
72061;BME280;59925;52.136;5.420;2023-05-22T10:04:03;101626.72;;;28.17;51.40
72061;BME280;59925;52.136;5.420;2023-05-22T10:06:31;101628.66;;;28.43;51.91
72061;BME280;59925;52.136;5.420;2023-05-22T10:09:04;101628.06;;;28.60;52.01
72061;BME280;59925;52.136;5.420;2023-05-22T10:11:32;101624.56;;;28.64;50.40
72061;BME280;59925;52.136;5.420;2023-05-22T10:14:01;101625.78;;;28.36;50.00
72061;BME280;59925;52.136;5.420;2023-05-22T10:16:28;101626.84;;;28.24;50.63
72061;BME280;59925;52.136;5.420;2023-05-22T10:18:55;101621.56;;;28.42;49.57
72061;BME280;59925;52.136;5.420;2023-05-22T10:21:23;101620.38;;;28.43;49.55
72061;BME280;59925;52.136;5.420;2023-05-22T10:23:50;101624.91;;;28.28;49.20
72061;BME280;59925;52.136;5.420;2023-05-22T10:26:18;101622.22;;;28.32;50.58
72061;BME280;59925;52.136;5.420;2023-05-22T10:28:51;101621.59;;;28.76;48.77
72061;BME280;59925;52.136;5.420;2023-05-22T10:31:35;101621.78;;;28.60;48.42
72061;BME280;59925;52.136;5.420;2023-05-22T10:34:10;101618.41;;;28.74;49.75
72061;BME280;59925;52.136;5.420;2023-05-22T10:36:55;101610.41;;;28.65;47.98
72061;BME280;59925;52.136;5.420;2023-05-22T10:40:00;101609.53;;;28.88;46.60
72061;BME280;59925;52.136;5.420;2023-05-22T10:42:30;101611.75;;;28.79;46.63
72061;BME280;59925;52.136;5.420;2023-05-22T10:44:59;101602.03;;;28.58;46.03
72061;BME280;59925;52.136;5.420;2023-05-22T10:47:26;101608.13;;;28.40;45.93
72061;BME280;59925;52.136;5.420;2023-05-22T10:50:05;101604.97;;;28.38;47.43
72061;BME280;59925;52.136;5.420;2023-05-22T10:52:36;101608.47;;;28.69;47.86
72061;BME280;59925;52.136;5.420;2023-05-22T10:55:09;101612.00;;;29.00;48.10
72061;BME280;59925;52.136;5.420;2023-05-22T10:57:37;101598.09;;;29.31;47.32
72061;BME280;59925;52.136;5.420;2023-05-22T11:00:08;101600.94;;;29.38;47.69
72061;BME280;59925;52.136;5.420;2023-05-22T11:02:38;101601.25;;;29.74;47.14
72061;BME280;59925;52.136;5.420;2023-05-22T11:07:43;101611.13;;;29.79;46.33
72061;BME280;59925;52.136;5.420;2023-05-22T11:10:10;101600.13;;;29.86;46.72
72061;BME280;59925;52.136;5.420;2023-05-22T11:12:36;101604.22;;;30.03;46.39
72061;BME280;59925;52.136;5.420;2023-05-22T11:17:33;101590.84;;;30.16;44.54
72061;BME280;59925;52.136;5.420;2023-05-22T11:20:12;101593.59;;;30.09;45.98
72061;BME280;59925;52.136;5.420;2023-05-22T11:22:40;101590.94;;;29.67;45.08
72061;BME280;59925;52.136;5.420;2023-05-22T11:25:15;101580.75;;;29.82;45.44
72061;BME280;59925;52.136;5.420;2023-05-22T11:27:46;101584.78;;;29.92;44.79
72061;BME280;59925;52.136;5.420;2023-05-22T11:30:13;101589.25;;;30.11;44.69
72061;BME280;59925;52.136;5.420;2023-05-22T11:32:42;101587.75;;;30.28;44.62
72061;BME280;59925;52.136;5.420;2023-05-22T11:35:14;101578.31;;;30.40;45.23
72061;BME280;59925;52.136;5.420;2023-05-22T11:37:42;101574.88;;;30.72;43.46
72061;BME280;59925;52.136;5.420;2023-05-22T11:40:09;101576.13;;;30.90;41.23
72061;BME280;59925;52.136;5.420;2023-05-22T11:42:36;101576.13;;;30.90;44.11
72061;BME280;59925;52.136;5.420;2023-05-22T11:45:04;101572.63;;;31.14;41.19
72061;BME280;59925;52.136;5.420;2023-05-22T11:47:30;101565.47;;;31.10;40.99
72061;BME280;59925;52.136;5.420;2023-05-22T11:49:58;101570.16;;;30.84;41.01
72061;BME280;59925;52.136;5.420;2023-05-22T11:52:30;101561.03;;;30.62;42.03
72061;BME280;59925;52.136;5.420;2023-05-22T11:54:57;101565.75;;;30.61;41.04
72061;BME280;59925;52.136;5.420;2023-05-22T11:57:23;101559.09;;;30.77;40.23
72061;BME280;59925;52.136;5.420;2023-05-22T11:59:50;101559.88;;;30.66;40.49
72061;BME280;59925;52.136;5.420;2023-05-22T12:02:18;101568.16;;;30.63;38.63
72061;BME280;59925;52.136;5.420;2023-05-22T12:04:45;101566.56;;;30.62;40.88
72061;BME280;59925;52.136;5.420;2023-05-22T12:07:11;101563.44;;;30.74;41.10
72061;BME280;59925;52.136;5.420;2023-05-22T12:09:39;101563.88;;;31.01;39.73
72061;BME280;59925;52.136;5.420;2023-05-22T12:12:08;101559.16;;;31.24;40.90
72061;BME280;59925;52.136;5.420;2023-05-22T12:14:35;101571.03;;;31.49;42.93
72061;BME280;59925;52.136;5.420;2023-05-22T12:17:02;101563.84;;;31.92;40.54
72061;BME280;59925;52.136;5.420;2023-05-22T12:19:32;101567.06;;;31.79;41.51
72061;BME280;59925;52.136;5.420;2023-05-22T12:21:58;101559.56;;;31.29;41.18
72061;BME280;59925;52.136;5.420;2023-05-22T12:24:25;101570.19;;;30.98;41.39
72061;BME280;59925;52.136;5.420;2023-05-22T12:26:52;101566.22;;;30.99;41.60
72061;BME280;59925;52.136;5.420;2023-05-22T12:29:22;101565.81;;;30.72;39.85
72061;BME280;59925;52.136;5.420;2023-05-22T12:31:49;101567.81;;;30.97;40.70
72061;BME280;59925;52.136;5.420;2023-05-22T12:34:16;101566.22;;;30.85;41.30
72061;BME280;59925;52.136;5.420;2023-05-22T12:36:45;101568.44;;;30.47;41.17
72061;BME280;59925;52.136;5.420;2023-05-22T12:39:16;101563.91;;;29.99;41.86
72061;BME280;59925;52.136;5.420;2023-05-22T12:41:43;101558.47;;;29.54;42.56
72061;BME280;59925;52.136;5.420;2023-05-22T12:44:11;101565.72;;;29.28;42.41
72061;BME280;59925;52.136;5.420;2023-05-22T12:46:37;101557.16;;;29.40;42.13
72061;BME280;59925;52.136;5.420;2023-05-22T12:49:04;101552.31;;;29.78;43.55
72061;BME280;59925;52.136;5.420;2023-05-22T12:51:31;101550.69;;;30.44;42.66
72061;BME280;59925;52.136;5.420;2023-05-22T12:53:58;101559.09;;;30.73;40.36
72061;BME280;59925;52.136;5.420;2023-05-22T12:56:25;101556.31;;;30.77;42.37
72061;BME280;59925;52.136;5.420;2023-05-22T12:58:52;101551.25;;;31.15;42.55
72061;BME280;59925;52.136;5.420;2023-05-22T13:01:18;101559.91;;;30.95;40.99
72061;BME280;59925;52.136;5.420;2023-05-22T13:03:45;101561.66;;;30.26;43.33
72061;BME280;59925;52.136;5.420;2023-05-22T13:06:12;101573.97;;;29.73;43.58
72061;BME280;59925;52.136;5.420;2023-05-22T13:08:38;101583.50;;;28.89;45.80
72061;BME280;59925;52.136;5.420;2023-05-22T13:11:05;101583.44;;;28.51;46.89
72061;BME280;59925;52.136;5.420;2023-05-22T13:13:31;101585.50;;;28.24;48.12
72061;BME280;59925;52.136;5.420;2023-05-22T13:15:58;101583.41;;;27.90;48.75
72061;BME280;59925;52.136;5.420;2023-05-22T13:18:24;101579.22;;;27.73;48.70